Kingsley Lake, Florida
Current Conditions -  °F | °C
As of 8:35 PM on Monday 24 Nov 2014 (Local Time) from K42J Reporting Station
Clear Clear  
Wind Chill: 72°   Ceiling: Unl
Heat Index: 72°   Visibility: 7mi
Dew Point: 72°   Wind: 3mph
Humidity: 100%   Direction: 170°S
Pressure: 29.97"   Gusts: NA
Location:  29.9637°N, 82.0893°W
Report Text: K42J 250135Z AUTO 17003KT 7SM CLR 22/22 A2997 RMK AO1 TSNO
Loading
Personal Weather Stations






























Interactive Weather Map New forecast layout! Learn more

10-Day Weather Forecast

Advertisements
Track Severe Weather on mobile